sensor_id;sensor_type;location;lat;lon;timestamp;pressure;altitude;pressure_sealevel;temperature;humidity
21863;BME280;11096;51.338;12.524;2023-04-16T00:00:12;99950.47;;;9.82;100.00
21863;BME280;11096;51.338;12.524;2023-04-16T00:02:38;99955.66;;;9.82;100.00
21863;BME280;11096;51.338;12.524;2023-04-16T00:05:03;99961.56;;;9.84;100.00
21863;BME280;11096;51.338;12.524;2023-04-16T00:07:29;99961.47;;;9.85;100.00
21863;BME280;11096;51.338;12.524;2023-04-16T00:09:54;99962.19;;;9.87;100.00
21863;BME280;11096;51.338;12.524;2023-04-16T00:12:20;99966.44;;;9.88;100.00
21863;BME280;11096;51.338;12.524;2023-04-16T00:14:46;99969.16;;;9.87;100.00
21863;BME280;11096;51.338;12.524;2023-04-16T00:17:13;99970.00;;;9.87;100.00
21863;BME280;11096;51.338;12.524;2023-04-16T00:19:38;99965.94;;;9.83;100.00
21863;BME280;11096;51.338;12.524;2023-04-16T00:22:04;99969.16;;;9.87;100.00
21863;BME280;11096;51.338;12.524;2023-04-16T00:24:29;99962.06;;;9.89;100.00
21863;BME280;11096;51.338;12.524;2023-04-16T00:26:55;99973.31;;;9.89;100.00
21863;BME280;11096;51.338;12.524;2023-04-16T00:29:21;99970.59;;;9.91;100.00
21863;BME280;11096;51.338;12.524;2023-04-16T00:31:46;99969.88;;;9.89;100.00
21863;BME280;11096;51.338;12.524;2023-04-16T00:34:12;99969.56;;;9.94;100.00
21863;BME280;11096;51.338;12.524;2023-04-16T00:36:37;99966.13;;;9.93;100.00
21863;BME280;11096;51.338;12.524;2023-04-16T00:39:03;99965.84;;;9.85;100.00
21863;BME280;11096;51.338;12.524;2023-04-16T00:41:28;99960.66;;;9.85;100.00
21863;BME280;11096;51.338;12.524;2023-04-16T00:43:54;99967.50;;;9.86;100.00
21863;BME280;11096;51.338;12.524;2023-04-16T00:46:21;99966.56;;;9.87;100.00
21863;BME280;11096;51.338;12.524;2023-04-16T00:48:47;99969.34;;;9.84;100.00
21863;BME280;11096;51.338;12.524;2023-04-16T00:51:13;99970.31;;;9.83;100.00
21863;BME280;11096;51.338;12.524;2023-04-16T00:53:39;99966.03;;;9.82;100.00
21863;BME280;11096;51.338;12.524;2023-04-16T00:56:06;99965.00;;;9.84;100.00
21863;BME280;11096;51.338;12.524;2023-04-16T00:58:33;99965.22;;;9.81;100.00
21863;BME280;11096;51.338;12.524;2023-04-16T01:00:59;99959.19;;;9.81;100.00
21863;BME280;11096;51.338;12.524;2023-04-16T01:03:45;99963.25;;;9.85;100.00
21863;BME280;11096;51.338;12.524;2023-04-16T01:06:11;99967.81;;;9.81;100.00
21863;BME280;11096;51.338;12.524;2023-04-16T01:08:37;99966.16;;;9.80;100.00
21863;BME280;11096;51.338;12.524;2023-04-16T01:11:03;99968.97;;;9.77;100.00
21863;BME280;11096;51.338;12.524;2023-04-16T01:13:29;99966.47;;;9.76;100.00
21863;BME280;11096;51.338;12.524;2023-04-16T01:15:54;99977.88;;;9.73;100.00
21863;BME280;11096;51.338;12.524;2023-04-16T01:18:21;99979.66;;;9.73;100.00
21863;BME280;11096;51.338;12.524;2023-04-16T01:20:47;99985.88;;;9.70;100.00
21863;BME280;11096;51.338;12.524;2023-04-16T01:23:13;99985.03;;;9.70;100.00
21863;BME280;11096;51.338;12.524;2023-04-16T01:25:38;99989.59;;;9.66;100.00
21863;BME280;11096;51.338;12.524;2023-04-16T01:28:04;99991.38;;;9.65;100.00
21863;BME280;11096;51.338;12.524;2023-04-16T01:30:30;99989.69;;;9.64;100.00
21863;BME280;11096;51.338;12.524;2023-04-16T01:32:56;99995.84;;;9.63;100.00
21863;BME280;11096;51.338;12.524;2023-04-16T01:35:22;99998.22;;;9.66;100.00
21863;BME280;11096;51.338;12.524;2023-04-16T01:37:49;99998.22;;;9.66;100.00
21863;BME280;11096;51.338;12.524;2023-04-16T01:40:14;100000.28;;;9.61;100.00
21863;BME280;11096;51.338;12.524;2023-04-16T01:42:40;100000.50;;;9.58;100.00
21863;BME280;11096;51.338;12.524;2023-04-16T01:45:05;100000.50;;;9.58;100.00
21863;BME280;11096;51.338;12.524;2023-04-16T01:47:31;100000.91;;;9.52;100.00
21863;BME280;11096;51.338;12.524;2023-04-16T01:49:57;100008.38;;;9.44;100.00
21863;BME280;11096;51.338;12.524;2023-04-16T01:52:23;100007.94;;;9.37;100.00
21863;BME280;11096;51.338;12.524;2023-04-16T01:54:48;100007.72;;;9.28;100.00
21863;BME280;11096;51.338;12.524;2023-04-16T01:57:14;100014.44;;;9.17;100.00
21863;BME280;11096;51.338;12.524;2023-04-16T01:59:39;100006.66;;;9.17;100.00
21863;BME280;11096;51.338;12.524;2023-04-16T02:02:09;100006.44;;;9.20;100.00
21863;BME280;11096;51.338;12.524;2023-04-16T02:04:39;100006.44;;;9.20;100.00
21863;BME280;11096;51.338;12.524;2023-04-16T02:07:05;100013.09;;;9.24;100.00
21863;BME280;11096;51.338;12.524;2023-04-16T02:09:36;100005.25;;;9.26;100.00
21863;BME280;11096;51.338;12.524;2023-04-16T02:12:02;100013.31;;;9.21;100.00
21863;BME280;11096;51.338;12.524;2023-04-16T02:14:31;100007.84;;;9.26;100.00
21863;BME280;11096;51.338;12.524;2023-04-16T02:16:56;100007.53;;;9.31;100.00
21863;BME280;11096;51.338;12.524;2023-04-16T02:19:22;100007.31;;;9.34;100.00
21863;BME280;11096;51.338;12.524;2023-04-16T02:21:50;100008.47;;;9.42;100.00
21863;BME280;11096;51.338;12.524;2023-04-16T02:24:15;100010.34;;;9.40;100.00
21863;BME280;11096;51.338;12.524;2023-04-16T02:26:41;100010.16;;;9.43;100.00
21863;BME280;11096;51.338;12.524;2023-04-16T02:29:06;100013.56;;;9.44;100.00
21863;BME280;11096;51.338;12.524;2023-04-16T02:31:31;100014.50;;;9.43;100.00
21863;BME280;11096;51.338;12.524;2023-04-16T02:33:57;100020.94;;;9.50;100.00
21863;BME280;11096;51.338;12.524;2023-04-16T02:36:22;100021.47;;;9.55;100.00
21863;BME280;11096;51.338;12.524;2023-04-16T02:38:48;100028.22;;;9.58;100.00
21863;BME280;11096;51.338;12.524;2023-04-16T02:41:13;100028.22;;;9.71;100.00
21863;BME280;11096;51.338;12.524;2023-04-16T02:43:39;100030.81;;;9.71;100.00
21863;BME280;11096;51.338;12.524;2023-04-16T02:46:05;100030.91;;;9.69;100.00
21863;BME280;11096;51.338;12.524;2023-04-16T02:48:30;100031.03;;;9.67;100.00
21863;BME280;11096;51.338;12.524;2023-04-16T02:50:56;100027.72;;;9.65;100.00
21863;BME280;11096;51.338;12.524;2023-04-16T02:53:21;100025.13;;;9.65;100.00
21863;BME280;11096;51.338;12.524;2023-04-16T02:55:50;100020.66;;;9.67;100.00
21863;BME280;11096;51.338;12.524;2023-04-16T02:58:24;100033.50;;;9.69;100.00
21863;BME280;11096;51.338;12.524;2023-04-16T03:00:50;100032.59;;;9.70;100.00
21863;BME280;11096;51.338;12.524;2023-04-16T03:03:16;100027.19;;;9.73;100.00
21863;BME280;11096;51.338;12.524;2023-04-16T03:05:42;100034.16;;;9.73;100.00
21863;BME280;11096;51.338;12.524;2023-04-16T03:08:07;100038.31;;;9.75;100.00
21863;BME280;11096;51.338;12.524;2023-04-16T03:10:33;100042.66;;;9.75;100.00
21863;BME280;11096;51.338;12.524;2023-04-16T03:12:59;100030.72;;;9.72;100.00
21863;BME280;11096;51.338;12.524;2023-04-16T03:15:25;100043.28;;;9.78;100.00
21863;BME280;11096;51.338;12.524;2023-04-16T03:17:51;100035.41;;;9.80;100.00
21863;BME280;11096;51.338;12.524;2023-04-16T03:20:16;100040.38;;;9.83;100.00
21863;BME280;11096;51.338;12.524;2023-04-16T03:22:43;100039.44;;;9.84;100.00
21863;BME280;11096;51.338;12.524;2023-04-16T03:25:09;100042.16;;;9.82;100.00
21863;BME280;11096;51.338;12.524;2023-04-16T03:27:34;100039.66;;;9.81;100.00
21863;BME280;11096;51.338;12.524;2023-04-16T03:30:00;100048.69;;;9.88;100.00
21863;BME280;11096;51.338;12.524;2023-04-16T03:32:26;100050.31;;;9.89;100.00
21863;BME280;11096;51.338;12.524;2023-04-16T03:34:51;100048.03;;;9.84;100.00
21863;BME280;11096;51.338;12.524;2023-04-16T03:37:16;100054.09;;;9.85;100.00
21863;BME280;11096;51.338;12.524;2023-04-16T03:39:42;100053.13;;;9.86;100.00
21863;BME280;11096;51.338;12.524;2023-04-16T03:42:07;100053.13;;;9.86;100.00
21863;BME280;11096;51.338;12.524;2023-04-16T03:44:33;100055.94;;;9.83;100.00
21863;BME280;11096;51.338;12.524;2023-04-16T03:46:58;100055.81;;;9.84;100.00
21863;BME280;11096;51.338;12.524;2023-04-16T03:49:24;100053.97;;;9.86;100.00
21863;BME280;11096;51.338;12.524;2023-04-16T03:51:50;100065.59;;;9.81;100.00
21863;BME280;11096;51.338;12.524;2023-04-16T03:54:15;100062.28;;;9.79;100.00
21863;BME280;11096;51.338;12.524;2023-04-16T03:56:41;100068.41;;;9.78;100.00
21863;BME280;11096;51.338;12.524;2023-04-16T03:59:07;100066.72;;;9.77;100.00
21863;BME280;11096;51.338;12.524;2023-04-16T04:01:32;100067.59;;;9.77;100.00
21863;BME280;11096;51.338;12.524;2023-04-16T04:03:58;100068.41;;;9.78;100.00
21863;BME280;11096;51.338;12.524;2023-04-16T04:06:23;100069.66;;;9.72;100.00
21863;BME280;11096;51.338;12.524;2023-04-16T04:08:49;100073.91;;;9.73;100.00
21863;BME280;11096;51.338;12.524;2023-04-16T04:11:14;100075.75;;;9.71;100.00
21863;BME280;11096;51.338;12.524;2023-04-16T04:13:40;100071.81;;;9.65;100.00
21863;BME280;11096;51.338;12.524;2023-04-16T04:16:05;100077.81;;;9.66;100.00
21863;BME280;11096;51.338;12.524;2023-04-16T04:18:31;100079.59;;;9.65;100.00
21863;BME280;11096;51.338;12.524;2023-04-16T04:20:56;100086.84;;;9.60;100.00
21863;BME280;11096;51.338;12.524;2023-04-16T04:23:22;100088.28;;;9.64;100.00
21863;BME280;11096;51.338;12.524;2023-04-16T04:25:48;100096.00;;;9.66;100.00
21863;BME280;11096;51.338;12.524;2023-04-16T04:28:13;100087.25;;;9.67;100.00
21863;BME280;11096;51.338;12.524;2023-04-16T04:30:40;100091.03;;;9.76;100.00
21863;BME280;11096;51.338;12.524;2023-04-16T04:33:05;100091.13;;;9.74;100.00
21863;BME280;11096;51.338;12.524;2023-04-16T04:35:31;100093.53;;;9.77;100.00
21863;BME280;11096;51.338;12.524;2023-04-16T04:37:56;100093.31;;;9.80;100.00
21863;BME280;11096;51.338;12.524;2023-04-16T04:40:22;100097.69;;;9.80;100.00
21863;BME280;11096;51.338;12.524;2023-04-16T04:42:47;100100.97;;;9.82;100.00
21863;BME280;11096;51.338;12.524;2023-04-16T04:45:13;100098.59;;;9.79;100.00
21863;BME280;11096;51.338;12.524;2023-04-16T04:47:38;100105.56;;;9.78;100.00
21863;BME280;11096;51.338;12.524;2023-04-16T04:50:04;100114.38;;;9.76;100.00
21863;BME280;11096;51.338;12.524;2023-04-16T04:52:30;100115.31;;;9.75;100.00
21863;BME280;11096;51.338;12.524;2023-04-16T04:54:55;100113.66;;;9.74;100.00
21863;BME280;11096;51.338;12.524;2023-04-16T04:57:21;100114.47;;;9.74;100.00
21863;BME280;11096;51.338;12.524;2023-04-16T04:59:46;100121.22;;;9.77;100.00
21863;BME280;11096;51.338;12.524;2023-04-16T05:02:12;100126.41;;;9.77;100.00
21863;BME280;11096;51.338;12.524;2023-04-16T05:04:37;100121.88;;;9.80;100.00
21863;BME280;11096;51.338;12.524;2023-04-16T05:07:03;100129.66;;;9.80;100.00
21863;BME280;11096;51.338;12.524;2023-04-16T05:09:28;100129.53;;;9.82;100.00
21863;BME280;11096;51.338;12.524;2023-04-16T05:11:53;100135.28;;;9.87;100.00
21863;BME280;11096;51.338;12.524;2023-04-16T05:14:19;100140.25;;;9.90;100.00
21863;BME280;11096;51.338;12.524;2023-04-16T05:16:44;100134.34;;;9.88;100.00
21863;BME280;11096;51.338;12.524;2023-04-16T05:19:10;100143.78;;;9.89;100.00
21863;BME280;11096;51.338;12.524;2023-04-16T05:21:35;100138.69;;;9.87;100.00
21863;BME280;11096;51.338;12.524;2023-04-16T05:24:00;100140.34;;;9.88;100.00
21863;BME280;11096;51.338;12.524;2023-04-16T05:26:26;100143.16;;;9.85;100.00
21863;BME280;11096;51.338;12.524;2023-04-16T05:28:51;100138.34;;;9.79;100.00
21863;BME280;11096;51.338;12.524;2023-04-16T05:31:16;100142.38;;;11.35;100.00
21863;BME280;11096;51.338;12.524;2023-04-16T05:33:42;100154.63;;;11.46;100.00
21863;BME280;11096;51.338;12.524;2023-04-16T05:36:07;100151.28;;;11.44;100.00
21863;BME280;11096;51.338;12.524;2023-04-16T05:38:33;100152.97;;;11.45;100.00
21863;BME280;11096;51.338;12.524;2023-04-16T05:40:58;100152.47;;;11.40;100.00
21863;BME280;11096;51.338;12.524;2023-04-16T05:43:23;100152.41;;;11.29;100.00
21863;BME280;11096;51.338;12.524;2023-04-16T05:45:49;100157.19;;;10.98;100.00
21863;BME280;11096;51.338;12.524;2023-04-16T05:48:14;100159.25;;;11.06;100.00
21863;BME280;11096;51.338;12.524;2023-04-16T05:50:40;100164.00;;;11.12;100.00
21863;BME280;11096;51.338;12.524;2023-04-16T05:53:07;100171.16;;;11.21;100.00
21863;BME280;11096;51.338;12.524;2023-04-16T05:55:34;100163.63;;;11.29;100.00
21863;BME280;11096;51.338;12.524;2023-04-16T05:58:01;100175.94;;;11.27;100.00
21863;BME280;11096;51.338;12.524;2023-04-16T06:00:28;100178.34;;;11.42;100.00
21863;BME280;11096;51.338;12.524;2023-04-16T06:02:54;100179.88;;;11.33;100.00
21863;BME280;11096;51.338;12.524;2023-04-16T06:05:20;100175.47;;;11.33;100.00
21863;BME280;11096;51.338;12.524;2023-04-16T06:07:45;100183.63;;;11.29;100.00
21863;BME280;11096;51.338;12.524;2023-04-16T06:10:11;100181.41;;;11.35;100.00
21863;BME280;11096;51.338;12.524;2023-04-16T06:12:36;100189.22;;;11.35;100.00
21863;BME280;11096;51.338;12.524;2023-04-16T06:15:02;100184.78;;;11.49;100.00
21863;BME280;11096;51.338;12.524;2023-04-16T06:17:27;100188.63;;;11.56;100.00
21863;BME280;11096;51.338;12.524;2023-04-16T06:19:53;100177.38;;;11.55;100.00
21863;BME280;11096;51.338;12.524;2023-04-16T06:22:18;100190.47;;;11.54;100.00
21863;BME280;11096;51.338;12.524;2023-04-16T06:24:44;100191.53;;;11.75;100.00
21863;BME280;11096;51.338;12.524;2023-04-16T06:27:09;100194.53;;;11.82;100.00
21863;BME280;11096;51.338;12.524;2023-04-16T06:29:35;100188.69;;;11.78;100.00
21863;BME280;11096;51.338;12.524;2023-04-16T06:32:01;100199.16;;;11.54;100.00
21863;BME280;11096;51.338;12.524;2023-04-16T06:34:27;100202.19;;;11.48;100.00
21863;BME280;11096;51.338;12.524;2023-04-16T06:36:52;100196.88;;;11.50;100.00
21863;BME280;11096;51.338;12.524;2023-04-16T06:39:18;100203.41;;;11.79;100.00
21863;BME280;11096;51.338;12.524;2023-04-16T06:41:46;100205.34;;;11.89;100.00
21863;BME280;11096;51.338;12.524;2023-04-16T06:44:11;100201.97;;;11.99;100.00
21863;BME280;11096;51.338;12.524;2023-04-16T06:46:37;100204.44;;;12.01;100.00
21863;BME280;11096;51.338;12.524;2023-04-16T06:49:02;100207.66;;;12.05;100.00
21863;BME280;11096;51.338;12.524;2023-04-16T06:51:28;100207.94;;;11.89;100.00
21863;BME280;11096;51.338;12.524;2023-04-16T06:53:53;100215.56;;;12.03;100.00
21863;BME280;11096;51.338;12.524;2023-04-16T06:56:19;100223.94;;;11.71;100.00
21863;BME280;11096;51.338;12.524;2023-04-16T06:58:44;100225.44;;;12.11;100.00
21863;BME280;11096;51.338;12.524;2023-04-16T07:01:10;100223.13;;;12.30;100.00
21863;BME280;11096;51.338;12.524;2023-04-16T07:03:35;100222.53;;;12.38;100.00
21863;BME280;11096;51.338;12.524;2023-04-16T07:06:01;100227.34;;;12.55;100.00
21863;BME280;11096;51.338;12.524;2023-04-16T07:08:26;100230.19;;;12.63;100.00
21863;BME280;11096;51.338;12.524;2023-04-16T07:10:52;100226.78;;;12.16;100.00
21863;BME280;11096;51.338;12.524;2023-04-16T07:13:18;100226.53;;;12.19;100.00
21863;BME280;11096;51.338;12.524;2023-04-16T07:15:43;100231.06;;;12.29;100.00
21863;BME280;11096;51.338;12.524;2023-04-16T07:18:09;100229.66;;;12.36;100.00
21863;BME280;11096;51.338;12.524;2023-04-16T07:20:34;100246.50;;;12.54;100.00
21863;BME280;11096;51.338;12.524;2023-04-16T07:23:00;100242.25;;;12.64;100.00
21863;BME280;11096;51.338;12.524;2023-04-16T07:25:26;100241.69;;;12.83;100.00
21863;BME280;11096;51.338;12.524;2023-04-16T07:27:51;100242.63;;;12.71;100.00
21863;BME280;11096;51.338;12.524;2023-04-16T07:30:16;100247.00;;;12.59;100.00
21863;BME280;11096;51.338;12.524;2023-04-16T07:32:42;100260.75;;;12.61;100.00
21863;BME280;11096;51.338;12.524;2023-04-16T07:35:07;100252.22;;;12.48;99.53
21863;BME280;11096;51.338;12.524;2023-04-16T07:37:33;100251.75;;;12.65;100.00
21863;BME280;11096;51.338;12.524;2023-04-16T07:39:58;100253.66;;;12.75;97.72
21863;BME280;11096;51.338;12.524;2023-04-16T07:42:25;100256.13;;;12.65;97.71
21863;BME280;11096;51.338;12.524;2023-04-16T07:44:51;100264.06;;;12.75;98.02
21863;BME280;11096;51.338;12.524;2023-04-16T07:47:17;100257.22;;;12.74;95.31
21863;BME280;11096;51.338;12.524;2023-04-16T07:49:42;100264.59;;;13.02;95.23
21863;BME280;11096;51.338;12.524;2023-04-16T07:52:08;100267.41;;;12.99;94.43
21863;BME280;11096;51.338;12.524;2023-04-16T07:54:33;100270.75;;;13.13;94.87
21863;BME280;11096;51.338;12.524;2023-04-16T07:56:59;100268.38;;;13.09;94.46
21863;BME280;11096;51.338;12.524;2023-04-16T07:59:24;100276.09;;;13.00;96.22
21863;BME280;11096;51.338;12.524;2023-04-16T08:01:51;100273.00;;;13.17;95.73
21863;BME280;11096;51.338;12.524;2023-04-16T08:04:17;100280.94;;;13.16;94.97
21863;BME280;11096;51.338;12.524;2023-04-16T08:06:48;100282.53;;;13.29;93.31
21863;BME280;11096;51.338;12.524;2023-04-16T08:09:14;100278.34;;;13.16;95.05
21863;BME280;11096;51.338;12.524;2023-04-16T08:11:40;100283.00;;;13.35;94.95
21863;BME280;11096;51.338;12.524;2023-04-16T08:14:05;100286.28;;;13.59;93.81
21863;BME280;11096;51.338;12.524;2023-04-16T08:16:31;100285.94;;;13.52;91.64
21863;BME280;11096;51.338;12.524;2023-04-16T08:18:56;100300.88;;;13.50;91.81
21863;BME280;11096;51.338;12.524;2023-04-16T08:21:21;100301.03;;;13.49;92.31
21863;BME280;11096;51.338;12.524;2023-04-16T08:23:47;100307.06;;;13.49;95.09
21863;BME280;11096;51.338;12.524;2023-04-16T08:26:12;100303.94;;;13.67;92.55
21863;BME280;11096;51.338;12.524;2023-04-16T08:28:38;100306.53;;;13.78;89.59
21863;BME280;11096;51.338;12.524;2023-04-16T08:31:03;100303.91;;;13.89;88.64
21863;BME280;11096;51.338;12.524;2023-04-16T08:33:29;100306.72;;;13.98;87.26
21863;BME280;11096;51.338;12.524;2023-04-16T08:35:54;100307.03;;;13.61;89.95
21863;BME280;11096;51.338;12.524;2023-04-16T08:38:20;100312.34;;;13.82;88.52
21863;BME280;11096;51.338;12.524;2023-04-16T08:40:46;100317.59;;;14.14;86.71
21863;BME280;11096;51.338;12.524;2023-04-16T08:43:13;100310.81;;;14.23;84.59
21863;BME280;11096;51.338;12.524;2023-04-16T08:45:40;100317.34;;;14.17;84.84
21863;BME280;11096;51.338;12.524;2023-04-16T08:48:10;100312.19;;;14.27;84.30
21863;BME280;11096;51.338;12.524;2023-04-16T08:50:36;100323.03;;;14.22;83.27
21863;BME280;11096;51.338;12.524;2023-04-16T08:53:05;100330.09;;;13.44;85.44
21863;BME280;11096;51.338;12.524;2023-04-16T08:55:38;100327.88;;;13.94;88.64
21863;BME280;11096;51.338;12.524;2023-04-16T08:58:12;100331.91;;;13.99;88.25
21863;BME280;11096;51.338;12.524;2023-04-16T09:00:39;100327.50;;;14.31;85.72
21863;BME280;11096;51.338;12.524;2023-04-16T09:03:06;100330.50;;;14.80;82.36
21863;BME280;11096;51.338;12.524;2023-04-16T09:05:32;100332.34;;;14.68;82.46
21863;BME280;11096;51.338;12.524;2023-04-16T09:07:58;100325.88;;;15.55;79.68
21863;BME280;11096;51.338;12.524;2023-04-16T09:10:26;100324.44;;;15.72;78.66
21863;BME280;11096;51.338;12.524;2023-04-16T09:12:55;100327.38;;;16.46;74.97
21863;BME280;11096;51.338;12.524;2023-04-16T09:15:22;100331.69;;;16.18;74.14
21863;BME280;11096;51.338;12.524;2023-04-16T09:17:48;100333.75;;;16.34;72.17
21863;BME280;11096;51.338;12.524;2023-04-16T09:20:14;100332.66;;;16.17;71.31
21863;BME280;11096;51.338;12.524;2023-04-16T09:22:40;100339.81;;;16.05;73.15
21863;BME280;11096;51.338;12.524;2023-04-16T09:25:06;100335.28;;;16.07;72.35
21863;BME280;11096;51.338;12.524;2023-04-16T09:27:32;100347.22;;;15.50;72.42
21863;BME280;11096;51.338;12.524;2023-04-16T09:29:57;100352.16;;;15.34;75.42
21863;BME280;11096;51.338;12.524;2023-04-16T09:32:27;100355.59;;;15.75;74.17
21863;BME280;11096;51.338;12.524;2023-04-16T09:34:53;100352.91;;;15.55;74.06
21863;BME280;11096;51.338;12.524;2023-04-16T09:37:19;100351.94;;;15.56;74.61
21863;BME280;11096;51.338;12.524;2023-04-16T09:40:01;100349.69;;;15.73;72.15
21863;BME280;11096;51.338;12.524;2023-04-16T09:42:36;100355.50;;;15.15;73.95
21863;BME280;11096;51.338;12.524;2023-04-16T09:45:02;100358.56;;;15.51;75.51
21863;BME280;11096;51.338;12.524;2023-04-16T09:47:39;100358.59;;;14.46;77.28
21863;BME280;11096;51.338;12.524;2023-04-16T09:50:06;100360.28;;;15.10;76.35
21863;BME280;11096;51.338;12.524;2023-04-16T09:52:35;100363.78;;;15.20;75.31
21863;BME280;11096;51.338;12.524;2023-04-16T09:55:01;100366.50;;;14.88;77.42
21863;BME280;11096;51.338;12.524;2023-04-16T09:57:26;100368.97;;;15.10;77.65
21863;BME280;11096;51.338;12.524;2023-04-16T09:59:53;100369.03;;;14.78;74.79
21863;BME280;11096;51.338;12.524;2023-04-16T10:02:25;100381.31;;;14.34;77.04
21863;BME280;11096;51.338;12.524;2023-04-16T10:04:51;100375.91;;;14.58;77.56
21863;BME280;11096;51.338;12.524;2023-04-16T10:07:17;100373.53;;;13.57;80.01
21863;BME280;11096;51.338;12.524;2023-04-16T10:09:43;100378.28;;;13.51;84.57
21863;BME280;11096;51.338;12.524;2023-04-16T10:12:09;100388.00;;;13.49;85.41
21863;BME280;11096;51.338;12.524;2023-04-16T10:14:37;100389.34;;;14.10;84.85
21863;BME280;11096;51.338;12.524;2023-04-16T10:17:02;100385.28;;;14.17;82.46
21863;BME280;11096;51.338;12.524;2023-04-16T10:19:28;100388.22;;;13.80;82.95
21863;BME280;11096;51.338;12.524;2023-04-16T10:21:56;100393.81;;;13.64;86.66
21863;BME280;11096;51.338;12.524;2023-04-16T10:24:22;100396.78;;;13.60;86.44
21863;BME280;11096;51.338;12.524;2023-04-16T10:26:48;100402.59;;;13.86;85.77
21863;BME280;11096;51.338;12.524;2023-04-16T10:29:16;100395.78;;;13.94;85.38
21863;BME280;11096;51.338;12.524;2023-04-16T10:31:41;100397.25;;;13.76;86.82
21863;BME280;11096;51.338;12.524;2023-04-16T10:34:08;100398.69;;;13.69;87.06
21863;BME280;11096;51.338;12.524;2023-04-16T10:36:37;100397.22;;;13.99;86.68
21863;BME280;11096;51.338;12.524;2023-04-16T10:39:09;100395.06;;;14.04;84.89
21863;BME280;11096;51.338;12.524;2023-04-16T10:41:35;100395.44;;;13.88;83.71
21863;BME280;11096;51.338;12.524;2023-04-16T10:44:08;100407.69;;;13.53;86.75
21863;BME280;11096;51.338;12.524;2023-04-16T10:46:39;100404.72;;;13.58;86.77
21863;BME280;11096;51.338;12.524;2023-04-16T10:49:24;100402.00;;;13.71;86.96
21863;BME280;11096;51.338;12.524;2023-04-16T10:52:06;100402.94;;;13.70;87.49
21863;BME280;11096;51.338;12.524;2023-04-16T10:54:34;100400.47;;;13.68;88.07
21863;BME280;11096;51.338;12.524;2023-04-16T10:57:03;100402.44;;;13.31;90.03
21863;BME280;11096;51.338;12.524;2023-04-16T10:59:30;100401.31;;;13.11;90.99
21863;BME280;11096;51.338;12.524;2023-04-16T11:01:58;100403.91;;;13.46;92.61
21863;BME280;11096;51.338;12.524;2023-04-16T11:04:27;100402.34;;;13.78;90.25
21863;BME280;11096;51.338;12.524;2023-04-16T11:07:13;100405.88;;;13.88;89.77
21863;BME280;11096;51.338;12.524;2023-04-16T11:12:18;100395.38;;;14.22;86.78
21863;BME280;11096;51.338;12.524;2023-04-16T11:14:52;100407.72;;;14.31;86.42
21863;BME280;11096;51.338;12.524;2023-04-16T11:17:18;100407.19;;;14.05;87.16
21863;BME280;11096;51.338;12.524;2023-04-16T11:19:44;100412.56;;;13.69;89.72
21863;BME280;11096;51.338;12.524;2023-04-16T11:22:15;100409.56;;;13.85;90.88
21863;BME280;11096;51.338;12.524;2023-04-16T11:25:02;100409.00;;;13.70;90.03
21863;BME280;11096;51.338;12.524;2023-04-16T11:27:29;100418.50;;;13.60;90.87
21863;BME280;11096;51.338;12.524;2023-04-16T11:30:02;100418.63;;;13.59;90.82
21863;BME280;11096;51.338;12.524;2023-04-16T11:32:32;100417.91;;;13.57;91.80
21863;BME280;11096;51.338;12.524;2023-04-16T11:34:59;100420.41;;;13.47;91.56
21863;BME280;11096;51.338;12.524;2023-04-16T11:37:32;100416.72;;;13.49;93.17
21863;BME280;11096;51.338;12.524;2023-04-16T11:40:01;100419.38;;;13.25;91.83
21863;BME280;11096;51.338;12.524;2023-04-16T11:42:31;100430.22;;;12.97;94.40
21863;BME280;11096;51.338;12.524;2023-04-16T11:44:58;100425.47;;;12.91;94.80
21863;BME280;11096;51.338;12.524;2023-04-16T11:47:28;100430.28;;;12.84;94.81
21863;BME280;11096;51.338;12.524;2023-04-16T11:49:54;100423.09;;;12.99;94.50
21863;BME280;11096;51.338;12.524;2023-04-16T11:52:29;100429.38;;;12.96;95.04
21863;BME280;11096;51.338;12.524;2023-04-16T11:54:56;100428.81;;;12.68;94.25
21863;BME280;11096;51.338;12.524;2023-04-16T11:57:29;100432.63;;;13.00;95.48
21863;BME280;11096;51.338;12.524;2023-04-16T11:59:55;100440.31;;;13.01;94.27
21863;BME280;11096;51.338;12.524;2023-04-16T12:02:38;100439.53;;;13.12;95.03
21863;BME280;11096;51.338;12.524;2023-04-16T12:05:34;100448.66;;;13.18;94.45
21863;BME280;11096;51.338;12.524;2023-04-16T12:08:10;100446.78;;;13.20;95.73
21863;BME280;11096;51.338;12.524;2023-04-16T12:10:52;100442.81;;;13.38;94.83
21863;BME280;11096;51.338;12.524;2023-04-16T12:13:17;100441.84;;;12.93;94.38
21863;BME280;11096;51.338;12.524;2023-04-16T12:18:10;100444.34;;;13.29;93.06
21863;BME280;11096;51.338;12.524;2023-04-16T12:20:39;100443.53;;;13.63;91.89
21863;BME280;11096;51.338;12.524;2023-04-16T12:23:08;100453.97;;;13.85;91.36
21863;BME280;11096;51.338;12.524;2023-04-16T12:25:33;100445.31;;;14.07;89.82
21863;BME280;11096;51.338;12.524;2023-04-16T12:27:59;100447.56;;;14.12;89.49
21863;BME280;11096;51.338;12.524;2023-04-16T12:30:26;100450.56;;;13.96;88.72
21863;BME280;11096;51.338;12.524;2023-04-16T12:33:12;100452.63;;;14.36;88.54
21863;BME280;11096;51.338;12.524;2023-04-16T12:35:38;100449.09;;;14.26;87.33
21863;BME280;11096;51.338;12.524;2023-04-16T12:38:05;100447.38;;;14.47;85.72
21863;BME280;11096;51.338;12.524;2023-04-16T12:40:31;100459.75;;;14.34;85.12
21863;BME280;11096;51.338;12.524;2023-04-16T12:42:56;100452.66;;;14.13;85.61